createdAt,value
2023-02-08T00:02:10.680Z,34.60
2023-02-08T00:04:38.035Z,29.70
2023-02-08T00:07:05.356Z,32.93
2023-02-08T00:09:32.744Z,30.03
2023-02-08T00:12:00.110Z,30.23
2023-02-08T00:14:27.522Z,33.97
2023-02-08T00:16:54.909Z,37.67
2023-02-08T00:19:22.567Z,36.80
2023-02-08T00:21:49.954Z,36.83
2023-02-08T00:24:17.286Z,37.30
2023-02-08T00:26:44.663Z,40.67
2023-02-08T00:29:12.025Z,38.17
2023-02-08T00:31:39.823Z,38.63
2023-02-08T00:34:07.223Z,35.70
2023-02-08T00:36:34.741Z,37.53
2023-02-08T00:39:02.136Z,33.77
2023-02-08T00:41:29.588Z,25.43
2023-02-08T00:43:56.965Z,23.90
2023-02-08T00:46:24.356Z,21.50
2023-02-08T00:48:51.712Z,26.60
2023-02-08T00:51:19.057Z,30.47
2023-02-08T00:53:46.562Z,26.93
2023-02-08T00:56:16.406Z,24.33
2023-02-08T00:58:44.005Z,21.70
2023-02-08T01:01:12.092Z,19.23
2023-02-08T01:03:40.525Z,21.27
2023-02-08T01:06:09.460Z,19.03
2023-02-08T01:08:37.252Z,20.47
2023-02-08T01:11:06.209Z,22.03
2023-02-08T01:13:33.984Z,31.77
2023-02-08T01:16:13.707Z,23.30
2023-02-08T01:18:42.199Z,23.03
2023-02-08T01:21:14.490Z,23.87
2023-02-08T01:23:42.065Z,22.87
2023-02-08T01:26:10.139Z,22.77
2023-02-08T01:28:38.734Z,22.00
2023-02-08T01:31:16.733Z,22.33
2023-02-08T01:33:44.184Z,23.67
2023-02-08T01:36:11.904Z,23.40
2023-02-08T01:38:39.788Z,23.37
2023-02-08T01:41:08.359Z,26.07
2023-02-08T01:43:57.238Z,29.23
2023-02-08T01:46:24.660Z,25.20
2023-02-08T01:48:52.387Z,22.03
2023-02-08T01:51:24.885Z,21.83
2023-02-08T01:53:52.701Z,22.50
2023-02-08T01:56:24.262Z,24.00
2023-02-08T01:58:54.450Z,20.67
2023-02-08T02:01:21.983Z,22.40
2023-02-08T02:03:49.706Z,20.33
2023-02-08T02:06:18.914Z,20.73
2023-02-08T02:08:50.281Z,22.07
2023-02-08T02:11:17.836Z,23.10
2023-02-08T02:13:45.468Z,22.70
2023-02-08T02:16:15.405Z,22.90
2023-02-08T02:18:42.737Z,22.97
2023-02-08T02:21:10.097Z,24.80
2023-02-08T02:23:55.995Z,26.50
2023-02-08T02:26:36.028Z,23.57
2023-02-08T02:29:03.412Z,24.53
2023-02-08T02:31:49.479Z,25.90
2023-02-08T02:34:26.271Z,23.17
2023-02-08T02:36:53.723Z,24.07
2023-02-08T02:39:44.167Z,23.40
2023-02-08T02:42:46.912Z,22.43
2023-02-08T02:45:21.362Z,22.10
2023-02-08T02:48:03.802Z,24.13
2023-02-08T02:50:49.020Z,21.90
2023-02-08T02:53:28.546Z,22.17
2023-02-08T02:56:09.740Z,21.43
2023-02-08T02:58:38.496Z,20.07
2023-02-08T03:01:05.941Z,21.00
2023-02-08T03:03:34.664Z,20.57
2023-02-08T03:06:05.676Z,21.50
2023-02-08T03:08:51.961Z,19.20
2023-02-08T03:11:28.517Z,20.10
2023-02-08T03:13:55.838Z,21.90
2023-02-08T03:16:26.371Z,19.30
2023-02-08T03:18:56.721Z,19.27
2023-02-08T03:21:28.995Z,18.50
2023-02-08T03:23:59.201Z,20.83
2023-02-08T03:26:32.369Z,19.60
2023-02-08T03:29:05.182Z,20.97
2023-02-08T03:31:32.603Z,20.20
2023-02-08T03:34:09.187Z,19.83
2023-02-08T03:36:39.498Z,20.63
2023-02-08T03:39:09.272Z,20.67
2023-02-08T03:41:39.539Z,19.83
2023-02-08T03:44:15.585Z,21.13
2023-02-08T03:47:12.336Z,21.27
2023-02-08T03:49:40.087Z,20.87
2023-02-08T03:52:09.333Z,20.07
2023-02-08T03:54:38.994Z,20.47
2023-02-08T03:57:11.458Z,19.60
2023-02-08T03:59:42.699Z,19.43
2023-02-08T04:02:15.794Z,19.53
2023-02-08T04:04:46.434Z,19.33
2023-02-08T04:07:14.115Z,19.33
2023-02-08T04:09:41.425Z,19.20
2023-02-08T04:12:09.230Z,19.37
2023-02-08T04:14:36.522Z,19.07
2023-02-08T04:17:04.379Z,18.07
2023-02-08T04:19:31.715Z,21.10
2023-02-08T04:21:59.059Z,17.70
2023-02-08T04:24:26.353Z,19.37
2023-02-08T04:26:53.758Z,17.80
2023-02-08T04:29:21.041Z,18.80
2023-02-08T04:31:48.598Z,17.90
2023-02-08T04:34:16.028Z,19.63
2023-02-08T04:36:43.377Z,19.10
2023-02-08T04:39:10.659Z,18.03
2023-02-08T04:41:37.967Z,18.43
2023-02-08T04:44:05.272Z,17.03
2023-02-08T04:46:32.598Z,18.83
2023-02-08T04:49:00.135Z,19.47
2023-02-08T04:51:27.521Z,18.90
2023-02-08T04:53:54.820Z,18.80
2023-02-08T04:56:23.046Z,18.07
2023-02-08T04:58:50.326Z,20.23
2023-02-08T05:01:18.181Z,19.67
2023-02-08T05:03:45.611Z,20.10
2023-02-08T05:06:12.998Z,20.90
2023-02-08T05:08:40.431Z,20.10
2023-02-08T05:11:07.727Z,19.43
2023-02-08T05:13:35.529Z,20.83
2023-02-08T05:16:03.213Z,17.43
2023-02-08T05:18:30.553Z,18.00
2023-02-08T05:20:58.377Z,18.33
2023-02-08T05:23:26.254Z,18.70
2023-02-08T05:25:53.583Z,20.03
2023-02-08T05:28:21.022Z,19.33
2023-02-08T05:30:48.559Z,19.70
2023-02-08T05:33:15.909Z,18.87
2023-02-08T05:35:44.967Z,20.70
2023-02-08T05:38:12.279Z,20.53
2023-02-08T05:40:39.890Z,18.23
2023-02-08T05:43:07.469Z,18.67
2023-02-08T05:45:34.820Z,18.10
2023-02-08T05:48:02.477Z,20.47
2023-02-08T05:50:29.923Z,17.93
2023-02-08T05:52:57.293Z,17.70
2023-02-08T05:55:26.139Z,17.27
2023-02-08T05:57:53.497Z,17.80
2023-02-08T06:00:20.895Z,17.77
2023-02-08T06:02:49.063Z,19.23
2023-02-08T06:05:16.528Z,19.47
2023-02-08T06:07:43.839Z,18.83
2023-02-08T06:10:11.674Z,27.87
2023-02-08T06:12:39.091Z,20.33
2023-02-08T06:15:06.497Z,20.50
2023-02-08T06:17:33.797Z,18.53
2023-02-08T06:20:01.066Z,19.70
2023-02-08T06:22:28.380Z,18.77
2023-02-08T06:24:55.742Z,18.37
2023-02-08T06:27:23.023Z,18.33
2023-02-08T06:29:50.360Z,18.83
2023-02-08T06:32:17.993Z,18.97
2023-02-08T06:34:48.183Z,17.17
2023-02-08T06:37:15.510Z,18.70
2023-02-08T06:39:42.788Z,18.53
2023-02-08T06:42:10.064Z,18.93
2023-02-08T06:44:37.468Z,16.90
2023-02-08T06:47:05.912Z,21.30
2023-02-08T06:49:33.183Z,20.77
2023-02-08T06:52:00.474Z,19.93
2023-02-08T06:54:27.751Z,18.10
2023-02-08T06:56:55.045Z,16.70
2023-02-08T06:59:22.654Z,20.30
2023-02-08T07:01:50.946Z,18.13
2023-02-08T07:04:18.255Z,18.17
2023-02-08T07:06:48.190Z,19.43
2023-02-08T07:09:15.490Z,18.70
2023-02-08T07:11:42.851Z,20.40
2023-02-08T07:14:13.386Z,20.03
2023-02-08T07:16:40.716Z,20.27
2023-02-08T07:19:08.274Z,20.97
2023-02-08T07:21:35.536Z,19.73
2023-02-08T07:24:03.010Z,20.30
2023-02-08T07:26:33.065Z,18.60
2023-02-08T07:29:00.613Z,18.70
2023-02-08T07:31:27.940Z,20.60
2023-02-08T07:33:55.500Z,19.17
2023-02-08T07:36:22.773Z,20.23
2023-02-08T07:38:50.090Z,18.80
2023-02-08T07:41:17.403Z,19.23
2023-02-08T07:43:45.084Z,20.13
2023-02-08T07:46:19.796Z,21.83
2023-02-08T07:48:49.233Z,20.20
2023-02-08T07:51:16.844Z,20.13
2023-02-08T07:53:44.234Z,21.13
2023-02-08T07:56:11.565Z,21.23
2023-02-08T07:58:39.471Z,22.57
2023-02-08T08:01:21.072Z,23.57
2023-02-08T08:03:49.407Z,23.17
2023-02-08T08:06:17.257Z,22.47
2023-02-08T08:08:47.388Z,23.27
2023-02-08T08:11:15.420Z,21.97
2023-02-08T08:13:42.805Z,22.63
2023-02-08T08:16:10.217Z,24.87
2023-02-08T08:18:37.662Z,21.87
2023-02-08T08:21:05.255Z,24.37
2023-02-08T08:23:36.331Z,23.57
2023-02-08T08:26:17.904Z,23.43
2023-02-08T08:28:46.724Z,23.60
2023-02-08T08:31:16.044Z,24.03
2023-02-08T08:33:44.494Z,24.67
2023-02-08T08:36:11.812Z,22.70
2023-02-08T08:38:39.390Z,23.73
2023-02-08T08:41:17.925Z,23.57
2023-02-08T08:43:45.684Z,24.30
2023-02-08T08:46:13.105Z,24.40
2023-02-08T08:48:40.746Z,25.00
2023-02-08T08:51:08.703Z,24.57
2023-02-08T08:53:37.166Z,22.43
2023-02-08T08:56:05.482Z,24.37
2023-02-08T08:58:32.807Z,23.43
2023-02-08T09:01:00.899Z,25.77
2023-02-08T09:03:28.863Z,23.00
2023-02-08T09:05:56.413Z,24.37
2023-02-08T09:08:23.722Z,24.43
2023-02-08T09:10:51.071Z,23.10
2023-02-08T09:13:21.781Z,25.10
2023-02-08T09:15:49.739Z,24.40
2023-02-08T09:18:17.501Z,24.63
2023-02-08T09:20:45.153Z,22.03
2023-02-08T09:23:14.454Z,24.67
2023-02-08T09:25:42.058Z,24.63
2023-02-08T09:28:09.367Z,23.77
2023-02-08T09:30:36.858Z,23.50
2023-02-08T09:33:04.170Z,23.80
2023-02-08T09:35:31.629Z,23.33
2023-02-08T09:38:02.332Z,23.77
2023-02-08T09:40:37.223Z,25.00
2023-02-08T09:43:18.062Z,24.03
2023-02-08T09:46:00.304Z,22.60
2023-02-08T09:48:32.893Z,23.23
2023-02-08T09:51:19.430Z,19.83
2023-02-08T09:53:50.380Z,22.30
2023-02-08T09:56:22.077Z,21.00
2023-02-08T09:58:53.909Z,22.37
2023-02-08T10:01:24.280Z,22.73
2023-02-08T10:03:54.149Z,22.60
2023-02-08T10:06:21.957Z,21.50
2023-02-08T10:08:51.207Z,21.50
2023-02-08T10:11:27.330Z,20.03
2023-02-08T10:13:57.420Z,21.30
2023-02-08T10:16:27.854Z,20.03
2023-02-08T10:19:12.449Z,19.17
2023-02-08T10:21:57.014Z,18.77
2023-02-08T10:24:27.307Z,18.03
2023-02-08T10:26:58.979Z,18.07
2023-02-08T10:29:32.234Z,17.57
2023-02-08T10:32:18.438Z,17.80
2023-02-08T10:37:39.529Z,17.77
2023-02-08T10:40:21.268Z,17.83
2023-02-08T10:42:51.967Z,17.37
2023-02-08T10:45:28.536Z,17.60
2023-02-08T10:48:04.462Z,16.03
2023-02-08T10:50:31.846Z,17.57
2023-02-08T10:52:59.140Z,15.53
2023-02-08T10:55:26.491Z,16.50
2023-02-08T10:57:57.532Z,17.07
2023-02-08T11:00:29.716Z,18.27
2023-02-08T11:03:00.915Z,15.80
2023-02-08T11:05:35.874Z,15.03
2023-02-08T11:08:06.666Z,15.33
2023-02-08T11:10:34.240Z,15.07
2023-02-08T11:13:06.772Z,14.73
2023-02-08T11:15:37.108Z,12.37
2023-02-08T11:18:04.995Z,15.70
2023-02-08T11:20:36.835Z,17.20
2023-02-08T11:23:06.667Z,15.27
2023-02-08T11:25:36.125Z,15.43
2023-02-08T11:28:04.265Z,15.10
2023-02-08T11:30:33.414Z,13.20
2023-02-08T11:33:15.551Z,13.60
2023-02-08T11:35:43.224Z,13.83
2023-02-08T11:38:18.679Z,13.27
2023-02-08T11:40:46.711Z,13.60
2023-02-08T11:43:22.045Z,13.13
2023-02-08T11:45:49.665Z,13.57
2023-02-08T11:48:40.488Z,13.73
2023-02-08T11:51:08.212Z,13.50
2023-02-08T11:53:38.155Z,13.70
2023-02-08T11:56:07.454Z,12.53
2023-02-08T11:58:35.155Z,12.93
2023-02-08T12:01:04.358Z,12.67
2023-02-08T12:03:41.262Z,13.73
2023-02-08T12:06:27.220Z,13.10
2023-02-08T12:09:01.052Z,11.43
2023-02-08T12:11:34.709Z,13.13
2023-02-08T12:14:02.066Z,11.30
2023-02-08T12:16:44.213Z,11.23
2023-02-08T12:19:30.343Z,11.10
2023-02-08T12:22:17.452Z,9.60
2023-02-08T12:24:50.677Z,11.83
2023-02-08T12:27:18.244Z,9.80
2023-02-08T12:29:53.540Z,10.40
2023-02-08T12:32:23.876Z,11.77
2023-02-08T12:34:51.155Z,11.03
2023-02-08T12:37:57.009Z,11.07
2023-02-08T12:40:46.283Z,11.13
2023-02-08T12:43:19.876Z,11.17
2023-02-08T12:46:03.253Z,11.13
2023-02-08T12:48:49.937Z,10.60
2023-02-08T12:51:23.903Z,10.37
2023-02-08T12:54:03.632Z,11.23
2023-02-08T12:56:36.117Z,10.77
2023-02-08T12:59:13.424Z,10.47
2023-02-08T13:01:46.514Z,11.07
2023-02-08T13:04:15.799Z,9.53
2023-02-08T13:06:44.671Z,10.43
2023-02-08T13:09:27.465Z,10.07
2023-02-08T13:12:04.924Z,10.43
2023-02-08T13:14:32.157Z,10.33
2023-02-08T13:17:01.701Z,10.13
2023-02-08T13:19:35.153Z,9.50
2023-02-08T13:22:03.559Z,8.87
2023-02-08T13:24:36.217Z,8.63
2023-02-08T13:27:06.902Z,8.53
2023-02-08T13:29:35.640Z,9.20
2023-02-08T13:32:29.275Z,8.97
2023-02-08T13:34:58.811Z,9.00
2023-02-08T13:37:29.587Z,8.67
2023-02-08T13:40:08.050Z,8.83
2023-02-08T13:42:38.295Z,8.20
2023-02-08T13:45:06.886Z,7.80
2023-02-08T13:47:46.500Z,5.40
2023-02-08T13:50:32.578Z,5.10
2023-02-08T13:52:59.934Z,7.07
2023-02-08T13:55:33.763Z,6.57
2023-02-08T13:58:02.568Z,6.87
2023-02-08T14:00:30.829Z,8.87
2023-02-08T14:03:01.071Z,6.70
2023-02-08T14:05:34.884Z,6.43
2023-02-08T14:08:03.039Z,6.27
2023-02-08T14:10:31.981Z,5.83
2023-02-08T14:12:59.267Z,6.73
2023-02-08T14:15:31.370Z,6.67
2023-02-08T14:17:59.925Z,7.67
2023-02-08T14:20:53.623Z,6.60
2023-02-08T14:23:23.554Z,7.27
2023-02-08T14:25:53.572Z,7.33
2023-02-08T14:28:25.903Z,7.80
2023-02-08T14:30:55.291Z,6.70
2023-02-08T14:33:25.849Z,6.70
2023-02-08T14:35:55.447Z,6.10
2023-02-08T14:38:22.756Z,5.70
2023-02-08T14:40:53.071Z,7.73
2023-02-08T14:43:20.724Z,7.87
2023-02-08T14:45:49.582Z,7.10
2023-02-08T14:48:20.020Z,8.40
2023-02-08T14:51:06.096Z,6.73
2023-02-08T14:53:39.974Z,8.13
2023-02-08T14:56:15.296Z,7.10
2023-02-08T14:58:45.181Z,7.57
2023-02-08T15:01:19.444Z,7.40
2023-02-08T15:03:48.614Z,7.40
2023-02-08T15:06:23.848Z,5.73
2023-02-08T15:08:55.754Z,6.77
2023-02-08T15:11:25.122Z,7.33
2023-02-08T15:13:55.094Z,6.40
2023-02-08T15:16:23.026Z,7.07
2023-02-08T15:18:52.185Z,6.70
2023-02-08T15:21:25.543Z,5.93
2023-02-08T15:24:00.098Z,5.93
2023-02-08T15:26:27.963Z,5.73
2023-02-08T15:28:55.816Z,5.97
2023-02-08T15:31:33.816Z,6.50
2023-02-08T15:34:02.393Z,5.67
2023-02-08T15:36:34.165Z,5.83
2023-02-08T15:39:03.321Z,5.97
2023-02-08T15:41:32.322Z,6.63
2023-02-08T15:44:15.213Z,5.67
2023-02-08T15:46:44.256Z,6.47
2023-02-08T15:49:16.390Z,6.63
2023-02-08T15:51:44.740Z,6.13
2023-02-08T15:54:16.764Z,6.87
2023-02-08T15:56:48.250Z,7.80
2023-02-08T15:59:18.172Z,8.17
2023-02-08T16:01:48.784Z,8.40
2023-02-08T16:04:16.108Z,6.93
2023-02-08T16:06:48.914Z,8.20
2023-02-08T16:09:28.436Z,7.50
2023-02-08T16:12:01.989Z,7.90
2023-02-08T16:14:31.695Z,8.27
2023-02-08T16:17:05.020Z,8.17
2023-02-08T16:19:33.145Z,8.23
2023-02-08T16:22:19.099Z,7.60
2023-02-08T16:24:47.660Z,8.30
2023-02-08T16:27:18.218Z,8.27
2023-02-08T16:29:47.280Z,8.33
2023-02-08T16:32:34.415Z,9.03
2023-02-08T16:35:12.053Z,9.43
2023-02-08T16:37:39.888Z,7.63
2023-02-08T16:40:26.227Z,9.97
2023-02-08T16:42:53.515Z,8.53
2023-02-08T16:45:22.534Z,10.33
2023-02-08T16:47:51.631Z,10.47
2023-02-08T16:50:38.908Z,10.17
2023-02-08T16:53:06.178Z,10.53
2023-02-08T16:55:34.569Z,11.53
2023-02-08T16:58:01.869Z,9.73
2023-02-08T17:00:30.317Z,9.83
2023-02-08T17:02:57.944Z,9.40
2023-02-08T17:05:27.220Z,9.73
2023-02-08T17:07:54.675Z,11.23
2023-02-08T17:10:28.965Z,12.57
2023-02-08T17:13:09.890Z,13.03
2023-02-08T17:15:44.916Z,11.87
2023-02-08T17:18:13.245Z,18.10
2023-02-08T17:20:41.353Z,18.90
2023-02-08T17:23:08.820Z,17.07
2023-02-08T17:25:36.391Z,19.80
2023-02-08T17:28:05.549Z,22.50
2023-02-08T17:30:38.119Z,27.30
2023-02-08T17:33:06.630Z,20.03
2023-02-08T17:35:36.945Z,20.13
2023-02-08T17:38:05.187Z,18.83
2023-02-08T17:40:33.896Z,12.60
2023-02-08T17:43:01.295Z,17.33
2023-02-08T17:45:29.241Z,17.40
2023-02-08T17:47:57.406Z,17.37
2023-02-08T17:50:24.699Z,25.67
2023-02-08T17:52:52.385Z,26.17
2023-02-08T17:55:20.025Z,18.17
2023-02-08T17:57:47.647Z,19.00
2023-02-08T18:00:16.512Z,19.80
2023-02-08T18:02:48.015Z,25.53
2023-02-08T18:05:16.676Z,23.17
2023-02-08T18:07:44.120Z,18.53
2023-02-08T18:10:12.145Z,18.80
2023-02-08T18:12:39.671Z,17.33
2023-02-08T18:15:07.823Z,17.43
2023-02-08T18:17:35.844Z,14.63
2023-02-08T18:20:03.680Z,15.20
2023-02-08T18:22:31.546Z,15.37
2023-02-08T18:24:58.815Z,15.43
2023-02-08T18:27:27.301Z,15.87
2023-02-08T18:29:55.180Z,15.50
2023-02-08T18:32:22.608Z,16.30
2023-02-08T18:34:50.653Z,15.70
2023-02-08T18:37:18.295Z,17.13
2023-02-08T18:39:45.801Z,14.73
2023-02-08T18:42:13.091Z,15.50
2023-02-08T18:44:40.403Z,16.37
2023-02-08T18:47:08.735Z,15.70
2023-02-08T18:49:40.508Z,14.37
2023-02-08T18:52:12.374Z,15.20
2023-02-08T18:54:40.261Z,14.83
2023-02-08T18:57:09.546Z,14.40
2023-02-08T18:59:37.443Z,14.67
2023-02-08T19:02:06.945Z,15.63
2023-02-08T19:04:39.880Z,14.03
2023-02-08T19:07:07.689Z,12.80
2023-02-08T19:09:36.196Z,13.10
2023-02-08T19:12:03.843Z,11.53
2023-02-08T19:14:31.272Z,12.50
2023-02-08T19:16:58.589Z,11.10
2023-02-08T19:19:25.902Z,11.97
2023-02-08T19:21:53.514Z,11.93
2023-02-08T19:24:20.835Z,12.50
2023-02-08T19:26:48.313Z,11.07
2023-02-08T19:29:17.478Z,12.17
2023-02-08T19:31:45.427Z,12.23
2023-02-08T19:34:13.330Z,14.03
2023-02-08T19:36:49.497Z,12.27
2023-02-08T19:39:17.857Z,12.97
2023-02-08T19:41:48.587Z,12.53
2023-02-08T19:44:17.176Z,15.57
2023-02-08T19:46:48.041Z,13.93
2023-02-08T19:49:15.323Z,16.73
2023-02-08T19:51:42.981Z,20.97
2023-02-08T19:54:13.315Z,18.80
2023-02-08T19:56:41.742Z,18.47
2023-02-08T19:59:15.302Z,14.77
2023-02-08T20:01:42.962Z,14.90
2023-02-08T20:04:10.340Z,16.87
2023-02-08T20:06:39.022Z,15.00
2023-02-08T20:09:07.570Z,14.83
2023-02-08T20:11:38.734Z,14.03
2023-02-08T20:14:11.169Z,12.83
2023-02-08T20:16:38.512Z,14.37
2023-02-08T20:19:05.843Z,14.50
2023-02-08T20:21:39.547Z,13.80
2023-02-08T20:24:10.432Z,12.97
2023-02-08T20:26:40.348Z,13.97
2023-02-08T20:29:08.273Z,13.97
2023-02-08T20:31:36.507Z,15.00
2023-02-08T20:34:05.984Z,15.00
2023-02-08T20:36:40.425Z,14.30
2023-02-08T20:39:08.726Z,16.30
2023-02-08T20:41:36.132Z,15.33
2023-02-08T20:44:04.038Z,12.93
2023-02-08T20:46:34.036Z,13.27
2023-02-08T20:49:02.348Z,13.80
2023-02-08T20:51:30.293Z,12.07
2023-02-08T20:53:58.467Z,13.60
2023-02-08T20:56:27.479Z,13.97
2023-02-08T20:58:55.415Z,18.20
2023-02-08T21:01:26.842Z,15.47
2023-02-08T21:03:58.404Z,15.27
2023-02-08T21:06:29.348Z,13.97
2023-02-08T21:09:01.384Z,14.53
2023-02-08T21:11:30.072Z,13.77
2023-02-08T21:13:59.149Z,13.97
2023-02-08T21:16:27.735Z,13.70
2023-02-08T21:18:57.162Z,13.73
2023-02-08T21:21:25.478Z,14.80
2023-02-08T21:23:53.093Z,14.20
2023-02-08T21:26:21.182Z,16.97
2023-02-08T21:28:49.075Z,16.53
2023-02-08T21:31:19.594Z,17.33
2023-02-08T21:33:47.186Z,17.37
2023-02-08T21:36:16.841Z,17.50
2023-02-08T21:38:44.526Z,16.20
2023-02-08T21:41:16.694Z,15.90
2023-02-08T21:43:44.189Z,17.00
2023-02-08T21:46:11.705Z,16.17
2023-02-08T21:49:02.762Z,18.10
2023-02-08T21:51:49.126Z,17.57
2023-02-08T21:54:37.358Z,19.37
2023-02-08T21:57:05.813Z,20.57
2023-02-08T21:59:37.556Z,18.13
2023-02-08T22:02:05.890Z,20.83
2023-02-08T22:04:34.406Z,21.87
2023-02-08T22:07:06.708Z,20.57
2023-02-08T22:09:35.987Z,19.63
2023-02-08T22:12:03.386Z,20.80
2023-02-08T22:14:30.725Z,20.97
2023-02-08T22:16:58.274Z,18.77
2023-02-08T22:19:25.630Z,19.47
2023-02-08T22:21:52.924Z,17.43
2023-02-08T22:24:20.446Z,19.07
2023-02-08T22:26:47.717Z,17.50
2023-02-08T22:29:15.130Z,18.97
2023-02-08T22:31:42.447Z,18.73
2023-02-08T22:34:09.769Z,16.03
2023-02-08T22:36:37.023Z,16.73
2023-02-08T22:39:04.340Z,17.50
2023-02-08T22:41:31.666Z,15.83
2023-02-08T22:43:59.355Z,16.30
2023-02-08T22:46:26.698Z,15.83
2023-02-08T22:48:54.693Z,14.17
2023-02-08T22:51:23.507Z,14.63
2023-02-08T22:53:50.902Z,14.77
2023-02-08T22:56:18.870Z,15.53
2023-02-08T22:58:46.197Z,14.47
2023-02-08T23:01:14.630Z,14.03
2023-02-08T23:03:42.330Z,14.93
2023-02-08T23:06:10.587Z,14.73
2023-02-08T23:08:37.937Z,14.17
2023-02-08T23:11:06.770Z,13.50
2023-02-08T23:13:34.871Z,16.33
2023-02-08T23:16:02.289Z,13.70
2023-02-08T23:18:29.793Z,15.17
2023-02-08T23:20:57.080Z,15.13
2023-02-08T23:23:24.360Z,14.97
2023-02-08T23:25:51.939Z,15.87
2023-02-08T23:28:19.299Z,14.27
2023-02-08T23:30:46.829Z,15.53
2023-02-08T23:33:14.446Z,14.40
2023-02-08T23:35:41.884Z,13.70
2023-02-08T23:38:09.719Z,13.03
2023-02-08T23:40:37.313Z,12.40
2023-02-08T23:43:04.744Z,13.17
2023-02-08T23:45:32.031Z,13.43
2023-02-08T23:47:59.396Z,12.00
2023-02-08T23:50:27.136Z,12.40
2023-02-08T23:52:56.510Z,12.13
2023-02-08T23:55:24.473Z,12.57
2023-02-08T23:57:51.817Z,12.37
